Basildon, United Kingdom
Current Conditions -  °F | °C
As of 1:20 PM on Saturday 25 Oct 2014 (Local Time) from EGMC Reporting Station
Few Clouds Few Clouds  
Wind Chill: 59°   Ceiling: Unl
Heat Index: 59°   Visibility: 6mi
Dew Point: 43°   Wind: 13mph
Humidity: 55%   Direction: 240°WSW
Pressure: 30.06"   Gusts: NA
Location:  51.57°N, 0.49°E
Report Text: EGMC 251220Z 24011KT 9999 FEW040 15/06 Q1018
Loading
Personal Weather Stations






























Interactive Weather Map
Tropical Storm Tracking
New forecast layout! Learn more

10-Day Weather Forecast

Advertisements
Track Severe Weather on mobile